CheckWX is a tool to help pilots better visualize weather data.  It is not intended as a substitute for an official pre-flight weather briefing.

04:44:14 UTC

PABA METAR
Barter Island Airport
Barter Island, Alaska, USA
Current

52 mins ago

PABA 260352Z AUTO 27016KT 10SM CLR M30/M33 A3033 RMK AO2 SLP255 T13001333 FZRANO TSNO
Observed
Jan-26 @ 03:52 UTC
Wind
  • 270° at 16 KTS
Visibility
10 SM
Flight Rules
VFR
Cloud Levels
  • Clear skies
Temperature
-30°C / -22°F
Dewpoint
-33°C / -27°F
Humidity
75%
Altimeter
30.33" Hg
Pressure
1027.12 hPa
Previous

2 hours ago

PABA 260252Z AUTO 27015KT 10SM CLR M30/M33 A3033 RMK AO2 SLP257 60000 T13001333 53001 FZRANO TSNO
Observed
Jan-26 @ 02:52 UTC
Wind
  • 270° at 15 KTS
Visibility
10 SM
Flight Rules
VFR
Cloud Levels
  • Clear skies
Temperature
-30°C / -22°F
Dewpoint
-33°C / -27°F
Humidity
75%
Altimeter
30.33" Hg
Pressure
1027.12 hPa
Previous

3 hours ago

PABA 260152Z AUTO 28019KT 8SM CLR M30/M33 A3033 RMK AO2 SLP255 T13001333 FZRANO TSNO
Observed
Jan-26 @ 01:52 UTC
Wind
  • 280° at 19 KTS
Visibility
8 SM
Flight Rules
VFR
Cloud Levels
  • Clear skies
Temperature
-30°C / -22°F
Dewpoint
-33°C / -27°F
Humidity
75%
Altimeter
30.33" Hg
Pressure
1027.12 hPa